createdAt,value
2019-05-17T00:00:07.862Z,77.74
2019-05-17T00:02:37.396Z,77.67
2019-05-17T00:05:07.955Z,77.71
2019-05-17T00:07:36.884Z,78.04
2019-05-17T00:10:07.264Z,78.33
2019-05-17T00:12:36.784Z,78.67
2019-05-17T00:15:07.197Z,78.52
2019-05-17T00:17:37.699Z,78.52
2019-05-17T00:20:09.544Z,78.34
2019-05-17T00:22:38.211Z,78.59
2019-05-17T00:25:07.514Z,78.43
2019-05-17T00:27:36.907Z,78.43
2019-05-17T00:30:12.995Z,78.65
2019-05-17T00:32:41.612Z,79.34
2019-05-17T00:35:10.038Z,79.16
2019-05-17T00:37:38.417Z,79.16
2019-05-17T00:40:10.780Z,78.86
2019-05-17T00:42:39.465Z,78.88
2019-05-17T00:45:08.726Z,79.40
2019-05-17T00:47:40.026Z,79.40
2019-05-17T00:50:09.238Z,79.40
2019-05-17T00:52:37.624Z,79.61
2019-05-17T00:55:07.680Z,79.61
2019-05-17T00:57:36.855Z,79.56
2019-05-17T01:00:08.543Z,79.27
2019-05-17T01:02:37.279Z,78.80
2019-05-17T01:05:07.398Z,78.80
2019-05-17T01:07:37.756Z,78.84
2019-05-17T01:10:08.149Z,79.09
2019-05-17T01:12:36.809Z,78.97
2019-05-17T01:15:10.200Z,79.08
2019-05-17T01:17:38.925Z,78.96
2019-05-17T01:20:09.705Z,78.33
2019-05-17T01:22:38.158Z,78.33
2019-05-17T01:25:08.158Z,78.59
2019-05-17T01:27:38.196Z,78.64
2019-05-17T01:30:07.959Z,78.62
2019-05-17T01:32:37.413Z,78.45
2019-05-17T01:35:07.437Z,78.55
2019-05-17T01:37:36.915Z,78.60
2019-05-17T01:40:07.085Z,78.45
2019-05-17T01:42:37.372Z,78.59
2019-05-17T01:45:08.746Z,78.59
2019-05-17T01:47:37.215Z,78.67
2019-05-17T01:50:08.282Z,78.60
2019-05-17T01:52:37.123Z,78.38
2019-05-17T01:55:08.223Z,78.49
2019-05-17T01:57:37.166Z,78.62
2019-05-17T02:00:12.712Z,78.62
2019-05-17T02:02:47.126Z,78.85
2019-05-17T02:05:17.259Z,78.71
2019-05-17T02:07:46.544Z,78.95
2019-05-17T02:10:16.920Z,79.21
2019-05-17T02:12:48.658Z,78.95
2019-05-17T02:15:16.549Z,78.95
2019-05-17T02:17:46.873Z,78.83
2019-05-17T02:20:17.113Z,78.57
2019-05-17T02:22:47.318Z,78.54
2019-05-17T02:25:17.768Z,79.02
2019-05-17T02:27:46.411Z,78.62
2019-05-17T02:30:15.750Z,78.58
2019-05-17T02:32:45.528Z,78.58
2019-05-17T02:35:15.110Z,78.68
2019-05-17T02:37:44.155Z,78.92
2019-05-17T02:40:14.836Z,78.92
2019-05-17T02:42:43.727Z,78.69
2019-05-17T02:45:13.552Z,78.69
2019-05-17T02:47:43.601Z,78.45
2019-05-17T02:50:13.247Z,78.45
2019-05-17T02:52:43.560Z,78.57
2019-05-17T02:55:13.364Z,78.57
2019-05-17T02:57:43.232Z,78.77
2019-05-17T03:00:14.233Z,78.85
2019-05-17T03:02:43.783Z,78.91
2019-05-17T03:05:14.387Z,78.91
2019-05-17T03:07:44.001Z,79.02
2019-05-17T03:10:23.008Z,79.02
2019-05-17T03:12:44.350Z,78.85
2019-05-17T03:15:13.538Z,78.85
2019-05-17T03:17:43.441Z,78.68
2019-05-17T03:20:13.778Z,78.68
2019-05-17T03:22:44.021Z,78.43
2019-05-17T03:25:14.016Z,79.33
2019-05-17T03:27:43.268Z,79.05
2019-05-17T03:30:17.039Z,78.69
2019-05-17T03:32:47.656Z,78.69
2019-05-17T03:35:17.436Z,78.86
2019-05-17T03:37:45.033Z,78.86
2019-05-17T03:40:30.686Z,79.18
2019-05-17T03:42:44.016Z,79.28
2019-05-17T03:45:14.188Z,78.95
2019-05-17T03:47:44.407Z,78.95
2019-05-17T03:50:14.104Z,78.41
2019-05-17T03:52:44.420Z,78.41
2019-05-17T03:55:13.695Z,77.93
2019-05-17T03:57:44.222Z,78.41
2019-05-17T04:00:13.591Z,78.54
2019-05-17T04:02:44.378Z,78.56
2019-05-17T04:05:13.045Z,78.49
2019-05-17T04:07:43.380Z,78.38
2019-05-17T04:10:15.045Z,78.50
2019-05-17T04:12:44.399Z,77.98
2019-05-17T04:15:14.155Z,77.98
2019-05-17T04:17:44.109Z,78.04
2019-05-17T04:20:13.937Z,78.04
2019-05-17T04:22:44.076Z,77.63
2019-05-17T04:25:13.629Z,77.32
2019-05-17T04:27:43.980Z,77.72
2019-05-17T04:30:14.489Z,77.60
2019-05-17T04:32:44.143Z,77.73
2019-05-17T04:35:13.833Z,77.80
2019-05-17T04:37:44.698Z,77.80
2019-05-17T04:40:14.494Z,77.51
2019-05-17T04:42:44.232Z,77.51
2019-05-17T04:45:13.755Z,77.41
2019-05-17T04:47:44.409Z,77.42
2019-05-17T04:50:13.867Z,77.49
2019-05-17T04:52:43.236Z,76.85
2019-05-17T04:55:13.849Z,77.38
2019-05-17T04:57:43.735Z,77.23
2019-05-17T05:00:13.468Z,76.92
2019-05-17T05:02:43.747Z,76.74
2019-05-17T05:05:14.541Z,76.52
2019-05-17T05:07:43.950Z,76.52
2019-05-17T05:10:13.641Z,76.89
2019-05-17T05:12:43.519Z,76.89
2019-05-17T05:15:13.220Z,76.24
2019-05-17T05:17:42.600Z,76.60
2019-05-17T05:20:13.169Z,75.91
2019-05-17T05:22:42.629Z,76.13
2019-05-17T05:25:12.457Z,76.09
2019-05-17T05:27:42.617Z,76.09
2019-05-17T05:30:12.446Z,76.47
2019-05-17T05:32:42.795Z,76.47
2019-05-17T05:35:12.360Z,76.11
2019-05-17T05:37:42.384Z,76.25
2019-05-17T05:40:12.745Z,75.95
2019-05-17T05:42:42.716Z,76.07
2019-05-17T05:45:12.213Z,75.90
2019-05-17T05:47:41.733Z,75.78
2019-05-17T05:50:12.534Z,75.73
2019-05-17T05:52:42.309Z,75.94
2019-05-17T05:55:12.273Z,75.76
2019-05-17T05:57:42.038Z,75.74
2019-05-17T06:00:13.333Z,75.47
2019-05-17T06:02:42.205Z,75.62
2019-05-17T06:05:14.761Z,75.64
2019-05-17T06:07:42.218Z,75.14
2019-05-17T06:10:13.370Z,75.64
2019-05-17T06:12:43.422Z,75.03
2019-05-17T06:15:13.757Z,74.99
2019-05-17T06:17:42.998Z,75.06
2019-05-17T06:20:12.364Z,75.27
2019-05-17T06:22:42.915Z,74.81
2019-05-17T06:25:15.177Z,75.16
2019-05-17T06:27:41.792Z,74.74
2019-05-17T06:30:12.626Z,74.28
2019-05-17T06:32:43.246Z,73.86
2019-05-17T06:35:12.614Z,74.05
2019-05-17T06:37:42.271Z,73.73
2019-05-17T06:40:12.990Z,73.34
2019-05-17T06:42:45.137Z,73.61
2019-05-17T06:45:12.847Z,73.60
2019-05-17T06:47:42.559Z,72.95
2019-05-17T06:50:14.345Z,73.22
2019-05-17T06:52:43.376Z,73.37
2019-05-17T06:55:13.195Z,72.33
2019-05-17T06:57:43.298Z,72.30
2019-05-17T07:00:19.470Z,72.56
2019-05-17T07:02:43.106Z,72.65
2019-05-17T07:05:13.568Z,72.79
2019-05-17T07:07:41.970Z,72.95
2019-05-17T07:10:12.664Z,72.16
2019-05-17T07:12:55.053Z,72.42
2019-05-17T07:15:11.362Z,72.78
2019-05-17T07:17:40.147Z,72.62
2019-05-17T07:20:10.312Z,72.61
2019-05-17T07:22:40.887Z,72.51
2019-05-17T07:25:10.802Z,72.39
2019-05-17T07:27:45.425Z,71.76
2019-05-17T07:30:10.484Z,72.27
2019-05-17T07:32:40.546Z,71.89
2019-05-17T07:35:11.004Z,71.99
2019-05-17T07:37:40.071Z,72.60
2019-05-17T07:40:10.713Z,72.39
2019-05-17T07:42:39.976Z,72.61
2019-05-17T07:45:10.053Z,72.30
2019-05-17T07:47:40.365Z,71.81
2019-05-17T07:50:11.255Z,71.77
2019-05-17T07:52:40.180Z,71.80
2019-05-17T07:55:13.346Z,71.32
2019-05-17T07:57:41.798Z,71.59
2019-05-17T08:00:11.380Z,71.40
2019-05-17T08:02:40.414Z,71.25
2019-05-17T08:05:10.588Z,70.56
2019-05-17T08:07:40.707Z,70.42
2019-05-17T08:10:11.091Z,70.39
2019-05-17T08:12:40.555Z,70.99
2019-05-17T08:15:10.712Z,69.80
2019-05-17T08:17:39.956Z,69.82
2019-05-17T08:20:10.257Z,70.49
2019-05-17T08:22:39.813Z,70.18
2019-05-17T08:25:10.151Z,70.22
2019-05-17T08:27:40.478Z,69.73
2019-05-17T08:30:10.582Z,69.73
2019-05-17T08:32:40.211Z,69.44
2019-05-17T08:35:11.253Z,68.14
2019-05-17T08:37:42.348Z,67.73
2019-05-17T08:40:14.889Z,68.46
2019-05-17T08:42:41.459Z,68.16
2019-05-17T08:45:10.500Z,68.30
2019-05-17T08:47:39.611Z,68.21
2019-05-17T08:50:11.393Z,67.54
2019-05-17T08:52:40.297Z,66.44
2019-05-17T08:55:09.859Z,66.41
2019-05-17T08:57:40.044Z,66.46
2019-05-17T09:00:10.536Z,66.62
2019-05-17T09:02:40.983Z,66.59
2019-05-17T09:05:10.253Z,65.11
2019-05-17T09:07:40.127Z,65.69
2019-05-17T09:10:10.208Z,65.80
2019-05-17T09:12:40.870Z,66.51
2019-05-17T09:15:10.062Z,65.36
2019-05-17T09:17:39.721Z,66.31
2019-05-17T09:20:10.652Z,66.48
2019-05-17T09:22:39.817Z,66.49
2019-05-17T09:25:13.506Z,66.89
2019-05-17T09:27:39.887Z,66.93
2019-05-17T09:30:09.643Z,68.25
2019-05-17T09:32:40.427Z,68.85
2019-05-17T09:35:10.165Z,68.23
2019-05-17T09:37:41.517Z,68.87
2019-05-17T09:40:10.018Z,68.75
2019-05-17T09:42:41.204Z,67.89
2019-05-17T09:45:09.867Z,68.32
2019-05-17T09:47:39.653Z,68.06
2019-05-17T09:50:09.902Z,67.71
2019-05-17T09:52:40.726Z,68.03
2019-05-17T09:55:09.925Z,67.51
2019-05-17T09:57:40.776Z,66.76
2019-05-17T10:00:10.835Z,66.22
2019-05-17T10:02:40.323Z,65.54
2019-05-17T10:05:10.632Z,65.52
2019-05-17T10:07:40.230Z,64.09
2019-05-17T10:10:10.381Z,64.25
2019-05-17T10:12:40.440Z,62.75
2019-05-17T10:15:10.001Z,61.73
2019-05-17T10:17:38.665Z,63.01
2019-05-17T10:20:07.832Z,61.16
2019-05-17T10:22:36.885Z,61.21
2019-05-17T10:25:06.707Z,62.85
2019-05-17T10:27:35.353Z,62.88
2019-05-17T10:30:05.882Z,62.67
2019-05-17T10:32:34.272Z,62.48
2019-05-17T10:35:02.731Z,61.78
2019-05-17T10:37:31.115Z,63.78
2019-05-17T10:39:59.511Z,64.02
2019-05-17T10:42:30.405Z,64.63
2019-05-17T10:44:59.955Z,65.57
2019-05-17T10:47:30.085Z,65.97
2019-05-17T10:49:58.727Z,67.07
2019-05-17T10:52:29.735Z,67.50
2019-05-17T10:54:59.642Z,67.66
2019-05-17T10:57:30.097Z,67.44
2019-05-17T10:59:59.282Z,67.43
2019-05-17T11:02:30.209Z,67.76
2019-05-17T11:05:00.813Z,68.44
2019-05-17T11:07:28.446Z,67.76
2019-05-17T11:09:56.852Z,67.67
2019-05-17T11:12:25.252Z,67.23
2019-05-17T11:15:09.733Z,67.13
2019-05-17T11:17:23.839Z,65.79
2019-05-17T11:19:52.464Z,66.08
2019-05-17T11:22:21.359Z,66.79
2019-05-17T11:24:49.929Z,65.95
2019-05-17T11:27:18.555Z,65.10
2019-05-17T11:29:46.937Z,64.00
2019-05-17T11:32:15.437Z,66.34
2019-05-17T11:34:43.777Z,65.48
2019-05-17T11:37:12.248Z,65.59
2019-05-17T11:39:41.015Z,65.17
2019-05-17T11:42:09.698Z,65.62
2019-05-17T11:44:38.386Z,65.79
2019-05-17T11:47:07.094Z,66.05
2019-05-17T11:49:35.725Z,65.74
2019-05-17T11:52:04.189Z,65.38
2019-05-17T11:54:32.593Z,65.40
2019-05-17T11:57:01.222Z,65.27
2019-05-17T11:59:29.860Z,65.98
2019-05-17T12:01:58.260Z,66.02
2019-05-17T12:04:26.890Z,65.67
2019-05-17T12:06:55.369Z,65.69
2019-05-17T12:09:36.488Z,64.74
2019-05-17T12:11:53.926Z,65.11
2019-05-17T12:14:22.337Z,65.00
2019-05-17T12:16:50.963Z,64.11
2019-05-17T12:19:19.585Z,64.33
2019-05-17T12:21:47.983Z,64.51
2019-05-17T12:24:16.370Z,64.83
2019-05-17T12:26:47.425Z,65.34
2019-05-17T12:29:15.131Z,65.13
2019-05-17T12:31:43.531Z,64.98
2019-05-17T12:34:11.937Z,65.19
2019-05-17T12:36:43.708Z,63.94
2019-05-17T12:39:12.258Z,62.76
2019-05-17T12:41:40.714Z,62.36
2019-05-17T12:44:09.415Z,62.95
2019-05-17T12:46:37.814Z,63.38
2019-05-17T12:49:06.222Z,63.96
2019-05-17T12:51:34.629Z,63.13
2019-05-17T12:54:03.020Z,63.86
2019-05-17T12:56:31.420Z,65.38
2019-05-17T12:58:59.831Z,63.05
2019-05-17T13:01:28.524Z,62.89
2019-05-17T13:03:56.927Z,60.81
2019-05-17T13:06:25.342Z,61.96
2019-05-17T13:08:53.782Z,59.99
2019-05-17T13:11:22.260Z,60.28
2019-05-17T13:13:50.669Z,58.30
2019-05-17T13:16:19.496Z,58.29
2019-05-17T13:18:47.918Z,59.21
2019-05-17T13:21:16.502Z,57.36
2019-05-17T13:23:45.010Z,56.93
2019-05-17T13:26:13.547Z,56.75
2019-05-17T13:28:42.010Z,56.54
2019-05-17T13:31:10.521Z,55.53
2019-05-17T13:33:39.337Z,56.50
2019-05-17T13:36:07.914Z,57.67
2019-05-17T13:38:36.315Z,57.21
2019-05-17T13:41:04.931Z,56.73
2019-05-17T13:43:33.346Z,55.98
2019-05-17T13:46:01.752Z,56.38
2019-05-17T13:48:30.284Z,55.13
2019-05-17T13:50:58.807Z,57.15
2019-05-17T13:53:27.476Z,54.63
2019-05-17T13:55:56.046Z,54.99
2019-05-17T13:58:24.448Z,56.11
2019-05-17T14:00:52.944Z,55.22
2019-05-17T14:03:21.383Z,52.55
2019-05-17T14:05:52.479Z,54.10
2019-05-17T14:08:21.013Z,52.15
2019-05-17T14:10:49.637Z,51.83
2019-05-17T14:13:18.032Z,53.14
2019-05-17T14:15:46.885Z,52.04
2019-05-17T14:18:15.562Z,53.14
2019-05-17T14:20:45.397Z,53.18
2019-05-17T14:23:16.609Z,53.35
2019-05-17T14:25:45.131Z,50.11
2019-05-17T14:28:14.530Z,51.77
2019-05-17T14:30:42.999Z,51.58
2019-05-17T14:33:11.395Z,50.74
2019-05-17T14:35:39.787Z,52.45
2019-05-17T14:38:08.195Z,52.00
2019-05-17T14:41:05.084Z,50.17
2019-05-17T14:43:06.777Z,50.73
2019-05-17T14:45:35.255Z,50.14
2019-05-17T14:48:03.647Z,51.40
2019-05-17T14:50:32.097Z,51.35
2019-05-17T14:53:00.470Z,51.17
2019-05-17T14:55:28.883Z,50.00
2019-05-17T14:57:57.288Z,50.12
2019-05-17T15:00:25.943Z,50.83
2019-05-17T15:02:54.363Z,50.71
2019-05-17T15:05:22.838Z,50.76
2019-05-17T15:07:51.242Z,50.79
2019-05-17T15:10:19.717Z,49.45
2019-05-17T15:12:48.111Z,51.03
2019-05-17T15:15:27.142Z,49.50
2019-05-17T15:17:55.689Z,50.03
2019-05-17T15:20:24.097Z,50.23
2019-05-17T15:22:52.538Z,49.40
2019-05-17T15:25:20.938Z,52.68
2019-05-17T15:27:49.418Z,51.66
2019-05-17T15:30:17.954Z,50.42
2019-05-17T15:32:46.377Z,48.86
2019-05-17T15:35:16.792Z,49.74
2019-05-17T15:37:45.353Z,49.96
2019-05-17T15:40:13.813Z,50.91
2019-05-17T15:42:44.494Z,49.95
2019-05-17T15:45:12.594Z,50.54
2019-05-17T15:47:40.993Z,50.30
2019-05-17T15:50:10.941Z,49.72
2019-05-17T15:52:39.336Z,51.15
2019-05-17T15:55:08.510Z,50.81
2019-05-17T15:57:36.917Z,51.27
2019-05-17T16:00:06.780Z,51.85
2019-05-17T16:02:35.162Z,52.24
2019-05-17T16:05:04.197Z,50.34
2019-05-17T16:07:32.793Z,51.70
2019-05-17T16:10:02.964Z,52.30
2019-05-17T16:12:31.440Z,53.28
2019-05-17T16:15:05.759Z,52.80
2019-05-17T16:17:34.213Z,51.78
2019-05-17T16:20:02.768Z,51.37
2019-05-17T16:22:31.173Z,50.22
2019-05-17T16:24:59.849Z,50.81
2019-05-17T16:27:28.500Z,51.18
2019-05-17T16:29:56.906Z,50.47
2019-05-17T16:32:25.322Z,51.91
2019-05-17T16:34:53.852Z,50.26
2019-05-17T16:37:22.245Z,50.91
2019-05-17T16:39:50.764Z,51.63
2019-05-17T16:42:19.255Z,51.39
2019-05-17T16:44:47.630Z,50.80
2019-05-17T16:47:16.031Z,52.23
2019-05-17T16:49:44.503Z,51.92
2019-05-17T16:52:12.895Z,51.68
2019-05-17T16:54:41.539Z,51.14
2019-05-17T16:57:10.039Z,53.06
2019-05-17T16:59:38.526Z,51.46
2019-05-17T17:02:07.000Z,53.57
2019-05-17T17:04:35.855Z,53.65
2019-05-17T17:07:04.399Z,52.90
2019-05-17T17:09:32.871Z,53.71
2019-05-17T17:12:01.653Z,53.77
2019-05-17T17:14:30.341Z,53.78
2019-05-17T17:16:58.741Z,53.98
2019-05-17T17:19:27.159Z,54.00
2019-05-17T17:21:55.562Z,55.31
2019-05-17T17:24:23.965Z,55.58
2019-05-17T17:26:52.392Z,55.17
2019-05-17T17:29:20.785Z,55.40
2019-05-17T17:31:49.285Z,56.16
2019-05-17T17:34:17.733Z,56.25
2019-05-17T17:36:46.630Z,55.58
2019-05-17T17:39:15.015Z,55.44
2019-05-17T17:41:43.435Z,55.82
2019-05-17T17:44:11.886Z,55.61
2019-05-17T17:46:40.296Z,55.92
2019-05-17T17:49:08.675Z,56.42
2019-05-17T17:51:37.095Z,56.55
2019-05-17T17:54:05.566Z,56.64
2019-05-17T17:56:33.980Z,56.54
2019-05-17T17:59:02.633Z,55.84
2019-05-17T18:01:33.218Z,56.52
2019-05-17T18:04:01.596Z,56.55
2019-05-17T18:06:30.023Z,56.93
2019-05-17T18:08:58.404Z,57.15
2019-05-17T18:11:26.790Z,56.95
2019-05-17T18:13:55.356Z,56.66
2019-05-17T18:16:24.020Z,57.09
2019-05-17T18:18:52.491Z,57.69
2019-05-17T18:21:20.982Z,57.25
2019-05-17T18:23:49.335Z,57.38
2019-05-17T18:26:18.335Z,57.63
2019-05-17T18:28:46.683Z,57.59
2019-05-17T18:31:15.380Z,57.96
2019-05-17T18:33:43.758Z,57.97
2019-05-17T18:36:12.141Z,58.61
2019-05-17T18:38:40.742Z,58.78
2019-05-17T18:41:09.153Z,58.47
2019-05-17T18:43:37.625Z,58.19
2019-05-17T18:46:06.019Z,58.62
2019-05-17T18:48:34.439Z,59.21
2019-05-17T18:51:02.893Z,59.36
2019-05-17T18:53:31.601Z,59.51
2019-05-17T18:56:00.025Z,59.70
2019-05-17T18:58:28.440Z,59.78
2019-05-17T19:00:56.818Z,60.08
2019-05-17T19:03:25.201Z,59.65
2019-05-17T19:05:53.619Z,59.63
2019-05-17T19:08:22.003Z,60.14
2019-05-17T19:10:50.696Z,60.21
2019-05-17T19:13:19.149Z,60.35
2019-05-17T19:15:49.414Z,60.34
2019-05-17T19:18:17.815Z,60.30
2019-05-17T19:20:46.599Z,60.07
2019-05-17T19:23:15.002Z,60.18
2019-05-17T19:25:43.487Z,60.93
2019-05-17T19:28:11.889Z,60.65
2019-05-17T19:30:40.290Z,60.78
2019-05-17T19:33:09.066Z,61.00
2019-05-17T19:35:37.804Z,61.09
2019-05-17T19:38:06.294Z,60.94
2019-05-17T19:40:34.686Z,61.56
2019-05-17T19:43:03.167Z,61.56
2019-05-17T19:45:31.841Z,61.85
2019-05-17T19:48:00.234Z,61.96
2019-05-17T19:50:28.703Z,62.01
2019-05-17T19:52:57.372Z,62.67
2019-05-17T19:55:25.831Z,62.80
2019-05-17T19:57:54.577Z,62.90
2019-05-17T20:00:23.413Z,62.70
2019-05-17T20:02:51.846Z,62.58
2019-05-17T20:05:20.240Z,62.98
2019-05-17T20:07:48.626Z,62.97
2019-05-17T20:10:17.873Z,63.16
2019-05-17T20:12:46.278Z,63.55
2019-05-17T20:15:18.358Z,63.68
2019-05-17T20:17:47.068Z,63.77
2019-05-17T20:20:16.441Z,63.66
2019-05-17T20:22:44.840Z,64.12
2019-05-17T20:25:13.581Z,63.99
2019-05-17T20:27:41.978Z,64.13
2019-05-17T20:30:15.858Z,64.36
2019-05-17T20:32:44.252Z,64.42
2019-05-17T20:35:12.990Z,64.51
2019-05-17T20:37:41.717Z,64.38
2019-05-17T20:40:10.455Z,64.68
2019-05-17T20:42:39.014Z,65.12
2019-05-17T20:45:09.296Z,64.98
2019-05-17T20:47:37.708Z,65.15
2019-05-17T20:50:10.332Z,65.51
2019-05-17T20:52:39.061Z,65.49
2019-05-17T20:55:08.209Z,65.53
2019-05-17T20:57:36.852Z,65.57
2019-05-17T21:00:09.125Z,65.43
2019-05-17T21:02:37.527Z,65.63
2019-05-17T21:05:07.826Z,65.79
2019-05-17T21:07:36.229Z,65.86
2019-05-17T21:10:05.984Z,66.06
2019-05-17T21:12:34.375Z,66.33
2019-05-17T21:15:02.962Z,66.56
2019-05-17T21:17:32.301Z,67.02
2019-05-17T21:20:00.691Z,67.11
2019-05-17T21:22:29.099Z,67.22
2019-05-17T21:25:01.955Z,67.42
2019-05-17T21:27:30.580Z,67.54
2019-05-17T21:29:59.051Z,67.81
2019-05-17T21:32:27.461Z,68.25
2019-05-17T21:34:55.884Z,68.46
2019-05-17T21:37:24.276Z,68.68
2019-05-17T21:39:52.722Z,68.98
2019-05-17T21:42:21.214Z,69.21
2019-05-17T21:44:52.677Z,69.41
2019-05-17T21:47:23.027Z,69.20
2019-05-17T21:49:51.808Z,69.61
2019-05-17T21:52:20.182Z,69.51
2019-05-17T21:54:48.637Z,69.63
2019-05-17T21:57:17.312Z,69.62
2019-05-17T21:59:45.997Z,69.49
2019-05-17T22:02:14.471Z,69.37
2019-05-17T22:04:42.862Z,69.59
2019-05-17T22:07:11.576Z,69.62
2019-05-17T22:09:39.951Z,69.90
2019-05-17T22:12:10.003Z,69.92
2019-05-17T22:14:38.396Z,69.94
2019-05-17T22:17:07.021Z,70.23
2019-05-17T22:19:35.730Z,70.15
2019-05-17T22:22:04.187Z,70.19
2019-05-17T22:24:32.606Z,70.24
2019-05-17T22:27:01.013Z,70.06
2019-05-17T22:29:29.668Z,70.12
2019-05-17T22:31:58.079Z,69.92
2019-05-17T22:34:26.478Z,69.80
2019-05-17T22:36:54.878Z,69.75
2019-05-17T22:39:23.614Z,69.86
2019-05-17T22:41:52.302Z,70.19
2019-05-17T22:44:20.961Z,69.88
2019-05-17T22:46:49.691Z,69.70
2019-05-17T22:49:18.091Z,69.62
2019-05-17T22:51:46.492Z,69.82
2019-05-17T22:54:15.161Z,70.00
2019-05-17T22:56:43.701Z,70.10
2019-05-17T22:59:12.141Z,70.37
2019-05-17T23:01:40.535Z,70.54
2019-05-17T23:04:09.186Z,70.69
2019-05-17T23:06:37.880Z,70.82
2019-05-17T23:09:06.921Z,71.07
2019-05-17T23:11:35.480Z,71.39
2019-05-17T23:14:04.768Z,71.60
2019-05-17T23:16:33.224Z,72.04
2019-05-17T23:19:08.772Z,72.20
2019-05-17T23:21:37.892Z,72.65
2019-05-17T23:24:06.642Z,72.54
2019-05-17T23:26:35.107Z,72.31
2019-05-17T23:29:03.591Z,72.11
2019-05-17T23:31:32.111Z,71.92
2019-05-17T23:34:00.955Z,72.11
2019-05-17T23:36:30.886Z,72.25
2019-05-17T23:38:59.281Z,72.58
2019-05-17T23:41:27.681Z,72.79
2019-05-17T23:43:56.075Z,72.83
2019-05-17T23:46:24.486Z,73.20
2019-05-17T23:48:53.177Z,73.22
2019-05-17T23:51:21.876Z,73.52
2019-05-17T23:53:50.560Z,73.73
2019-05-17T23:56:19.014Z,73.98
2019-05-17T23:58:47.453Z,74.01
